Tiempo atmosférico en la estación meteorológica de Cádiz, Cadiz (1 m.)



Fecha
DESCASC
Temp. máxima en grados centígrados (hora)
DESCASC
Temp. mínima en grados centígrados (hora)
DESCASC
Temp. media en grados centígrados
DESCASC
Racha de viento máxima en m/sg (hora)
DESCASC
Velocidad máxima media en intervalos de 10 minutos(hora)
DESCASC
Precipitaciones diarias en mm
DESCASC
Precipitaciones de 00:00 a 06:00 en mm
DESCASC
Precipitaciones de 06:00 a 12:00 en mm
DESCASC
Precipitaciones de 12:00 a 18:00 en mm
DESCASC
Precipitaciones de 18:00 a 24:00 en mm
DESCASC
05-04-2020 21.8 (16:10) 14.8 (07:30) 18.3 16.39 (11:50) 9.44 (00:50) 0 0 0 0 0
04-04-2020 17.7 (17:10) 15 (05:40) 16.4 18.89 (08:30) 14.17 (11:30) 0.3 0 0 0.3 0
03-04-2020 20 (19:10) 12 (06:30) 16 13.61 (22:00) 10 (23:50) 0 0 0 0 0
02-04-2020 16.8 (20:00) 11.8 (00:00) 14.3 15 (00:10) 7.22 (00:20) 10.8 9.9 0.9 0 0
01-04-2020 17.6 (16:50) 11.2 (00:00) 14.4 12.22 (19:10) 6.39 (19:10) 0.8 0 0.6 0 0.2
31-03-2020 19.2 (15:40) 13.2 (00:00) 16.2 11.94 (01:40) 8.61 (02:20) 26.1 23.8 0.9 1.3 0.1
30-03-2020 18.2 (13:50) 13.6 (00:00) 15.9 7.5 (16:20) 4.72 (16:20) 16.7 0 0 0 16.7
29-03-2020 19.2 (17:00) 12.1 (00:00) 15.7 9.17 (03:20) 6.94 (00:10) 0 0 0 0 0
28-03-2020 18.7 (16:00) 12 (00:00) 15.4 9.44 (22:30) 7.22 (23:59) 0 0 0 0 0
27-03-2020 17.4 (16:00) 13.1 (00:00) 15.3 8.33 (01:30) 4.72 (01:30) 0 0 0 0 0
26-03-2020 19 (16:30) 12.5 (00:00) 15.8 8.61 (18:30) 5.28 (18:30) 0 0 0 0 0
25-03-2020 19.3 (15:40) 13.4 (00:00) 16.3 11.11 (11:20) 8.06 (11:10) 0 0 0 0 0
24-03-2020 15.5 (18:20) 11.6 (00:00) 13.6 9.17 (01:20) 6.94 (01:20) 5.7 0 5.1 0.6 0
23-03-2020 18.1 (15:20) 10.8 (00:00) 14.5 8.89 (15:50) 7.22 (15:50) 0 0 0 0 0
22-03-2020 16.8 (13:10) 10.9 (07:30) 13.8 8.61 (00:10) 4.72 (00:10) 3.7 3.7 0 0 0
21-03-2020 16.4 (17:30) 12.3 (00:00) 14.3 15.83 (13:30) 8.89 (13:30) 8.6 0.6 3 4.4 0.6
20-03-2020 17.9 (15:50) 13 (00:00) 15.4 15.83 (14:20) 11.67 (14:20) 13.6 0.3 0.6 0 12.7
19-03-2020 18.7 (15:40) 16.2 (00:00) 17.5 18.33 (00:10) 13.61 (00:10) 0 0 0 0 0
18-03-2020 20.3 (14:00) 13.7 (00:00) 17 21.94 (16:10) 14.72 (16:10) 19.1 19.1 0 0 0
17-03-2020 17 (15:30) 8.3 (00:00) 12.7 15.28 (15:50) 10.83 (14:30) 32.3 0.1 18.9 0 13.3
16-03-2020 16.9 (17:30) 11.1 (00:00) 14 14.17 (14:50) 9.44 (08:10) 0.1 0.1 0 0 0
15-03-2020 20.8 (13:40) 15.2 (00:00) 18 8.33 (10:30) 6.11 (03:20) 0 0 0 0 0
14-03-2020 20.3 (15:40) 14 (00:00) 17.1 5.28 (09:50) 3.33 (23:00) 0 0 0 0 0
13-03-2020 19.4 (15:20) 14.4 (23:59) 16.9 5 (13:30) 2.78 (13:30) 0 0 0 0 0
12-03-2020 19.8 (16:10) 14.4 (00:00) 17.1 9.17 (06:50) 3.61 (03:00) 0 0 0 0 0
11-03-2020 24.1 (15:00) 15.5 (00:00) 19.8 13.89 (12:40) 9.44 (12:40) 0 0 0 0 0
10-03-2020 24.4 (16:30) 13.4 (00:00) 18.9 11.39 (22:40) 8.61 (19:00) 0 0 0 0 0

Gráficas

Temp. máximas Temp. mínimas Temp. medias Precipitaciones Rachas de viento máximas Velocidades máximas media en intervalos de 10 minutos

Datos horarios

Fecha y hora oficial Temperatura (ºC) Velocidad del viento (km/h) Dirección del viento Racha (km/h) Dirección de racha Precipitación (mm) Presión (hPa) Tendencia (hPa) Humedad (%)
2020-04-08 23:00:00 16.8 30 Sudeste 42 Sudeste 0 1019.6 1 74
2020-04-08 22:00:00 17.1 19 Este 30 Este 0 1019.7 0.8 69
2020-04-08 21:00:00 17.7 21 Este 42 Este 0 1019.3 -0.1 64
2020-04-08 20:00:00 18.3 32 Este 44 Este 0 1018.6 -0.9 59
2020-04-08 19:00:00 18.8 24 Este 41 Este 0 1018.9 -0.9 63
2020-04-08 18:00:00 19.2 28 Este 41 Este 0 1019.4 -0.7 60
2020-04-08 17:00:00 20 26 Este 44 Este 0 1019.5 -1.3 60
2020-04-08 16:00:00 20.3 33 Este 41 Este 0 1019.8 -1.4 58
2020-04-08 15:00:00 20.6 31 Este 45 Este 0 1020.1 -1.4 56
2020-04-08 14:00:00 19.7 32 Este 40 Este 0 1020.8 -0.6 57
2020-04-08 13:00:00 19 24 Este 42 Este 0 1021.2 0.1 62
2020-04-08 12:00:00 18.5 27 Este 39 Este 0 1021.5 0.2 61
2020-04-08 11:00:00 17.6 21 Este 34 Este 0 1021.4 0.4 67
2020-04-08 10:00:00 16.6 13 Este 28 Este 0 1021.1 0 65
2020-04-08 09:00:00 16.2 9 Nordeste 28 Este 0 1021.3 0.2 67
2020-04-08 08:00:00 16.3 10 Este 30 Este 0 1021 -0.5 70
2020-04-08 07:00:00 16.5 16 Este 25 Este 0 1021.1 -0.6 71
2020-04-08 06:00:00 16.4 11 Este 24 Este 0 1021.1 -1.3 74
2020-04-08 05:00:00 16.7 13 Este 31 Este 0 1021.5 -1.3 69
2020-04-08 04:00:00 16.6 17 Este 33 Este 0 1021.7 -1.3 71
2020-04-08 03:00:00 16.7 27 Este 45 Este 0 1022.4 -0.6 77
2020-04-08 02:00:00 16.6 27 Este 40 Este 0 1022.8 -0.2 80
2020-04-08 01:00:00 16.9 28 Este 40 Este 0 1023 0.4 78
2020-04-08 00:00:00 16.9 29 Este 39 Sudeste 0 1023 1.2 77
2020-04-07 23:00:00 16.8 27 Este 36 Este 0 1023 1.3 79
2020-04-07 22:00:00 17.1 23 Este 36 Sudeste 0 1022.6 1.1 77
2020-04-07 21:00:00 18.1 24 Sudeste 33 Este 0 1021.8 0.3 72
2020-04-07 20:00:00 19.5 21 Este 26 Este 0 1021.7 0 69
2020-04-07 19:00:00 20.7 17 Este 24 Este 0 1021.5 -0.5 67
2020-04-07 18:00:00 21.3 17 Este 22 Este 0 1021.5 -0.9 64
2020-04-07 17:00:00 22.1 7 Sudeste 22 Sudeste 0 1021.7 -1.2 65
2020-04-07 16:00:00 21.3 18 Sudeste 28 Este 0 1022 -1.1 66
2020-04-07 15:00:00 21.7 17 Este 29 Sudeste 0 1022.4 -0.7 61
2020-04-07 14:00:00 20.8 21 Sudeste 30 Sudeste 0 1022.9 0.2 63
2020-04-07 13:00:00 20.2 23 Sudeste 34 Sudeste 0 1023.1 0.2 63
2020-04-07 12:00:00 18.9 27 Sudeste 36 Sudeste 0 1023.1 0.5 70
2020-04-07 11:00:00 17.8 26 Sudeste 35 Sudeste 0 1022.7 0.7 76
2020-04-07 10:00:00 16.6 15 Sudeste 21 Sudeste 0 1022.9 0.6 81
2020-04-07 09:00:00 15.3 7 Este 14 Este 0 1022.6 0.1 82
2020-04-07 08:00:00 14.6 5 Este 15 Este 0 1022 0 86
2020-04-07 07:00:00 14.9 4 Sudeste 12 Sudeste 0 1022.3 0 83
2020-04-07 06:00:00 15 5 Sudeste 14 Sudeste 0 1022.5 0.1 81
2020-04-07 05:00:00 15.2 14 Sudeste 20 Este 0 1022 -0.5 80
2020-04-07 04:00:00 15.4 14 Sudeste 21 Este 0 1022.3 -0.2 84
2020-04-07 03:00:00 15.3 14 Este 24 Este 0 1022.4 -0.5 84
2020-04-07 02:00:00 15.3 19 Este 26 Este 0 1022.5 -0.3 83
2020-04-07 01:00:00 15.9 20 Sudeste 27 Este 0 1022.5 -0.1 82
2020-04-07 00:00:00 16.5 9 Este 14 Sudeste 0 1022.9 1.2 84
2020-04-06 23:00:00 16.9 6 Sur 15 Sur 0 1022.8 1.7 88
2020-04-06 22:00:00 17 5 Sur 15 Sudoeste 0 1022.6 1.6 86
2020-04-06 21:00:00 17.4 6 Sur 19 Sur 0 1021.7 0.6 85
2020-04-06 20:00:00 19 13 Sur 23 Sur 0 1021.1 -0.3 77
2020-04-06 19:00:00 19.6 15 Sur 23 Sur 0 1021 -0.9 75
2020-04-06 18:00:00 19.5 13 Sur 26 Sur 0 1021.1 -0.8 75
2020-04-06 17:00:00 20.4 18 Sur 27 Sur 0 1021.4 -0.4 73
2020-04-06 16:00:00 20.1 19 Sur 27 Sudeste 0 1021.9 -0.2 75
2020-04-06 15:00:00 18.6 17 Sudeste 24 Sudeste 0 1021.9 -0.1 81
2020-04-06 14:00:00 18 21 Sudeste 30 Sudeste 0 1021.8 0.4 83
2020-04-06 13:00:00 17 21 Sudeste 32 Sudeste 0.1 1022.1 1.5 88
2020-04-06 12:00:00 16.2 23 Sudeste 37 Sudeste 0 1022 1.9 90
2020-04-06 11:00:00 15.7 26 Sudeste 33 Sudeste 0 1021.4 2.1 89
2020-04-06 10:00:00 16 25 Sudeste 30 Sudeste 0 1020.6 1.8 85
2020-04-06 09:00:00 16 24 Sudeste 37 Sudeste 0 1020.1 1.3 84
2020-04-06 08:00:00 15.8 26 Sudeste 33 Sudeste 0 1019.3 0.6 86
2020-04-06 07:00:00 15.9 26 Sudeste 33 Sudeste 0 1018.8 -0.2 86
2020-04-06 06:00:00 15.9 23 Sudeste 31 Sudeste 0 1018.8 -0.3 85
2020-04-06 05:00:00 15.7 23 Sudeste 28 Sudeste 0 1018.7 -0.9 86
2020-04-06 04:00:00 15.6 23 Sudeste 31 Sudeste 0 1019 -0.5 87
2020-04-06 03:00:00 15.5 23 Sudeste 31 Sudeste 0 1019.1 -0.4 87
2020-04-06 02:00:00 15.6 20 Sudeste 29 Sudeste 0 1019.6 0.7 85
2020-04-06 01:00:00 15.9 21 Sudeste 26 Sudeste 0 1019.5 0.8 85
2020-04-06 00:00:00 16 16 Sudeste 29 Sudeste 0 1019.5 1.9 85
2020-04-05 23:00:00 16.5 24 Sudeste 31 Sudeste 0 1018.9 1.3 83
2020-04-05 22:00:00 17.1 21 Sudeste 33 Sudeste 0 1018.7 1.4 81
2020-04-05 21:00:00 17.8 26 Sudeste 30 Sudeste 0 1017.6 0.8 79
2020-04-05 20:00:00 18.4 10 Sur 23 Sur 0 1017.6 0.4 83
2020-04-05 19:00:00 18.9 14 Sur 25 Sur 0 1017.3 0.1 79
2020-04-05 18:00:00 20 16 Sur -- -- -- 1016.8 -0.9 73
2020-04-05 17:00:00 19.9 14 Sur 29 Sur 0 1017.2 -0.7 73
2020-04-05 16:00:00 21.7 18 Sur 30 Sur 0 1017.2 -0.3 53
2020-04-05 15:00:00 19.9 16 Sur 30 Sur 0 1017.7 -0.3 72
2020-04-05 14:00:00 19.4 15 Sur 35 Sudeste 0 1017.9 0.2 73
2020-04-05 13:00:00 19.9 26 Sudeste 36 Sudeste 0 1017.5 0.3 67
2020-04-05 12:00:00 18.7 23 Sudeste 59 Sudeste 0 1018 1.3 72
2020-04-05 11:00:00 17.6 28 Sudeste 40 Sudeste 0 1017.7 1.8 73
2020-04-05 10:00:00 16.2 25 Sudeste 35 Sudeste 0 1017.2 2 77
2020-04-05 09:00:00 15.3 22 Sudeste 32 Sudeste 0 1016.7 1.8 82
2020-04-05 08:00:00 15 25 Sudeste 36 Sudeste 0 1015.9 0.9 83
2020-04-05 07:00:00 15 22 Sudeste 39 Sudeste 0 1015.2 0.1 82
2020-04-05 06:00:00 15.1 24 Sudeste 40 Sudeste 0 1014.9 -0.1 83
2020-04-05 05:00:00 15.3 24 Sudeste 39 Sudeste 0 1015 -0.1 81
2020-04-05 04:00:00 15.5 28 Sudeste 42 Sudeste 0 1015.1 -0.1 80
2020-04-05 03:00:00 15.5 27 Sudeste 41 Sudeste 0 1015 -0.1 78
2020-04-05 02:00:00 15.5 31 Sudeste 43 Sudeste 0 1015.1 0.1 80
2020-04-05 01:00:00 15.8 32 Sudeste 44 Sudeste 0 1015.2 0.7 80
2020-04-05 00:00:00 15.9 33 Sudeste 48 Sudeste 0 1015.1 1.7 79
2020-04-04 23:00:00 15.9 32 Sudeste 52 Este 0 1015 2.2 78
2020-04-04 22:00:00 16 37 Sudeste 50 Sudeste 0 1014.5 2.1 77
2020-04-04 21:00:00 16.5 35 Sudeste 51 Sudeste 0 1013.4 1.4 76
2020-04-04 20:00:00 16.9 40 Sudeste 58 Sudeste 0 1012.8 0.7 74
2020-04-04 19:00:00 17.4 44 Sudeste 56 Sudeste 0 1012.4 0 72
2020-04-04 18:00:00 17.1 42 Sudeste 59 Sudeste 0 1012 -0.1 74
2020-04-04 17:00:00 17.6 41 Sudeste 55 Sudeste 0 1012.1 1 71
2020-04-04 16:00:00 17.1 37 Sudeste 56 Sudeste 0 1012.4 -0.2 75
2020-04-04 15:00:00 16.8 42 Sudeste 63 Este 0 1012.1 -0.7 75
2020-04-04 14:00:00 16.2 47 Este 67 Este 0 1011.1 -1 79
2020-04-04 13:00:00 16.3 43 Sudeste 62 Sudeste 0.3 1012.6 1.3 79
2020-04-04 12:00:00 17.1 49 Sudeste 66 Sudeste 0 1012.8 2.2 70
2020-04-04 11:00:00 16.7 43 Sudeste 60 Sudeste 0 1012.1 2.2 72
2020-04-04 10:00:00 16 46 Sudeste 61 Sudeste 0 1011.3 1.4 72
2020-04-04 09:00:00 15.7 44 Sudeste 68 Sudeste 0 1010.6 0.5 72
2020-04-04 08:00:00 15.6 45 Sudeste 63 Este 0 1009.9 -0.8 73
2020-04-04 07:00:00 15.4 45 Sudeste 62 Sudeste 0 1009.9 -1.3 74
2020-04-04 06:00:00 15.2 45 Sudeste 60 Sudeste 0 1010.1 -2.2 77
2020-04-04 05:00:00 15.2 39 Sudeste 54 Sudeste 0 1010.7 -1.7 76
2020-04-04 04:00:00 15.3 36 Este 51 Este 0 1011.2 -1.7 73
2020-04-04 03:00:00 15.3 34 Este 53 Sudeste 0 1012.3 -0.8 74
2020-04-04 02:00:00 15.5 33 Sudeste 48 Sudeste 0 1012.4 -1.2 74
2020-04-04 01:00:00 15.5 36 Sudeste 50 Sudeste 0 1012.9 -0.4 70
2020-04-04 00:00:00 15.7 34 Este 48 Este 0 1013.1 0 72
2020-04-03 23:00:00 15.9 33 Este 48 Sudeste 0 1013.6 0.4 69
2020-04-03 22:00:00 16.7 34 Sudeste 49 Este 0 1013.3 0.1 60
2020-04-03 21:00:00 17.4 35 Sudeste 47 Sudeste 0 1013.1 -0.6 61
2020-04-03 20:00:00 18.9 33 Este 43 Este 0 1013.2 -0.8 54
2020-04-03 19:00:00 19.7 15 Este 32 Este 0 1013.2 -1.3 55
2020-04-03 18:00:00 19.5 6 Sudoeste 13 Sur 0 1013.7 -1.7 61
2020-04-03 17:00:00 18.9 6 Sur 17 Sudoeste 0 1014 -1.9 69
2020-04-03 16:00:00 18.9 9 Sudoeste 19 Sudoeste 0 1014.5 -2.1 68
2020-04-03 15:00:00 18 12 Sudoeste 19 Sudoeste 0 1015.4 -1.2 71
2020-04-03 14:00:00 18.1 8 Sudoeste 18 Sudoeste 0 1015.9 -0.7 73
2020-04-03 13:00:00 17.9 8 Sur 18 Sur 0 1016.6 0.2 75
2020-04-03 12:00:00 17.3 8 Sur 17 Sur 0 1016.6 0.4 76
2020-04-03 11:00:00 16.4 8 Sudeste 14 Sudeste 0 1016.6 0.8 82
2020-04-03 10:00:00 14.7 5 Sudeste 11 Sudeste 0 1016.4 1.4 86
2020-04-03 09:00:00 13 7 Sudeste 11 Sudeste 0 1016.2 1.2 91
2020-04-03 08:00:00 12.3 8 Este 12 Este 0 1015.8 0.7 93
2020-04-03 07:00:00 12.3 5 Sudeste 10 Este 0 1015 -0.7 92
2020-04-03 06:00:00 12.4 5 Nordeste 12 Este 0 1015 -1.1 91
2020-04-03 05:00:00 13.4 7 Este 10 Este 0 1015.1 -1.4 90
2020-04-03 04:00:00 13.9 6 Sudeste 9 Este 0 1015.7 -1 89
2020-04-03 03:00:00 14.6 4 Sudeste 10 Sudeste 0 1016.1 -0.5 87
2020-04-03 02:00:00 15.3 4 Oeste 12 Oeste 0 1016.5 0.1 79
2020-04-03 01:00:00 15.5 7 Oeste 15 Oeste 0 1016.7 1.1 79
2020-04-03 00:00:00 15.6 10 Oeste 18 Oeste 0 1016.6 1.9 79
2020-04-02 23:00:00 15.7 10 Oeste 24 Oeste 0 1016.4 2 77
2020-04-02 22:00:00 15.6 13 Oeste 22 Oeste 0 1015.6 1.2 75
2020-04-02 21:00:00 15.4 15 Oeste 27 Oeste 0 1014.7 0.5 71
2020-04-02 20:00:00 16.7 14 Oeste 34 Oeste 0 1014.4 0.5 65
2020-04-02 19:00:00 16.5 20 Oeste 33 Oeste 0 1014.4 0.6 65
2020-04-02 18:00:00 15.7 22 Oeste 36 Oeste 0 1014.2 0.3 65
2020-04-02 17:00:00 15.4 22 Noroeste 34 Oeste 0 1013.9 0.3 68
2020-04-02 16:00:00 15.2 21 Oeste 33 Oeste 0 1013.8 0.7 69
2020-04-02 15:00:00 15 18 Oeste 30 Oeste 0 1013.9 1.2 68
2020-04-02 14:00:00 14 17 Oeste 27 Oeste 0 1013.6 1.6 76
2020-04-02 13:00:00 13.3 13 Oeste 20 Noroeste 0 1013.1 2.1 78
2020-04-02 12:00:00 12.8 10 Norte 19 Norte 0 1012.7 2.1 79
2020-04-02 11:00:00 12.8 14 Noroeste 21 Norte 0 1012 2 77
2020-04-02 10:00:00 12.4 4 Norte 22 Oeste 0.5 1011 0.8 82
2020-04-02 09:00:00 12.7 12 Noroeste 33 Noroeste 0.3 1010.6 0.5 81
2020-04-02 08:00:00 13.2 13 Oeste 27 Noroeste 0.1 1010 -0.9 72
2020-04-02 07:00:00 13.7 13 Noroeste 32 Noroeste 0 1010.2 -0.9 65
2020-04-02 06:00:00 13.3 17 Noroeste 26 Noroeste 5.7 1010.1 -1.8 79
2020-04-02 05:00:00 12.8 9 Noroeste 36 Sudoeste 1.3 1010.9 -2.1 89
2020-04-02 04:00:00 14.4 20 Sudoeste 38 Sudoeste 0.1 1011.1 -2.1 78
2020-04-02 03:00:00 13.3 10 Sudoeste 31 Sudoeste 1.3 1011.9 -1.7 86
2020-04-02 02:00:00 13.2 19 Sudoeste 40 Sudoeste 0.7 1013 -0.5 82
2020-04-02 01:00:00 14 14 Sudoeste 54 Oeste 0.8 1013.2 -0.2 81
2020-04-02 00:00:00 15.6 21 Sudoeste 37 Sudoeste 0 1013.6 0.5 67
2020-04-01 23:00:00 15.3 13 Sudoeste 32 Sudoeste 0 1013.5 0.4 75
2020-04-01 22:00:00 14.5 21 Sudoeste 36 Sudoeste 0 1013.4 0.3 69
2020-04-01 21:00:00 15.4 17 Sudoeste 30 Sudoeste 0 1013.1 -0.1 66
2020-04-01 20:00:00 15.4 13 Sudoeste 44 Sudoeste 0.2 1013.1 0.3 72
2020-04-01 19:00:00 16.1 18 Sudoeste 40 Sudoeste 0 1013.1 0 71
2020-04-01 18:00:00 16.7 16 Oeste 39 Oeste 0 1013.2 -0.5 65
2020-04-01 17:00:00 16.9 13 Sur 26 Sur 0 1012.8 -1.2 66
2020-04-01 16:00:00 17.1 14 Sur 24 Sudoeste 0 1013.1 -0.8 64
2020-04-01 15:00:00 17 10 Sur 26 Sur 0 1013.7 -0.8 64
2020-04-01 14:00:00 16.7 12 Sur 21 Sur 0 1014 -0.5 64
2020-04-01 13:00:00 15.3 15 Sudeste 23 Sudeste 0 1013.9 -0.2 73
2020-04-01 12:00:00 13.8 12 Este 16 Este 0 1014.5 1.6 77
2020-04-01 11:00:00 12.4 10 Nordeste 20 Norte 0.1 1014.5 2.1 77
2020-04-01 10:00:00 11.5 17 Norte 26 Noroeste 0.5 1014.1 2 77
2020-04-01 09:00:00 12 9 Nordeste 19 Nordeste 0 1012.9 1.3 76
2020-04-01 08:00:00 11.9 13 Nordeste 21 Norte 0 1012.4 1 77
2020-04-01 07:00:00 12.3 12 Norte 16 Norte 0 1012.1 0.9 76
2020-04-01 06:00:00 12.3 12 Nordeste 15 Norte 0 1011.6 0.1 74
2020-04-01 05:00:00 12.7 8 Nordeste 15 Norte 0 1011.4 -0.3 75
2020-04-01 04:00:00 13.5 12 Norte 21 Norte 0 1011.2 -0.6 74
2020-04-01 03:00:00 14.4 13 Noroeste 18 Noroeste 0 1011.5 0.5 70
2020-04-01 02:00:00 14.6 12 Oeste 23 Oeste 0 1011.7 0.8 72
2020-04-01 01:00:00 14.8 15 Oeste 27 Oeste 0 1011.8 1.8 69
2020-04-01 00:00:00 14.8 12 Sudoeste 22 Oeste 0 1011 2.1 78
2020-03-31 23:00:00 15 13 Oeste 23 Oeste 0 1010.9 2.6 76
2020-03-31 22:00:00 15.3 13 Oeste 23 Oeste 0 1010 2.7 78
2020-03-31 21:00:00 15.5 13 Sudoeste 20 Sudoeste 0 1008.9 2.2 78
2020-03-31 20:00:00 16 12 Oeste 23 Oeste 0 1008.3 1.9 80
2020-03-31 19:00:00 16.4 14 Oeste 26 Oeste 0.1 1007.3 1.2 80
2020-03-31 18:00:00 16.1 17 Oeste 31 Oeste 1.3 1006.7 0.7 87
2020-03-31 17:00:00 18.1 19 Sudoeste 32 Sudoeste 0 1006.4 0.6 71
2020-03-31 16:00:00 19.1 17 Sudoeste 33 Sudoeste 0 1006.1 0.3 69
2020-03-31 15:00:00 18.7 19 Sudoeste 33 Sur 0 1006 0.4 75
2020-03-31 14:00:00 18.4 18 Sudoeste 28 Sur 0 1005.8 0.7 75
2020-03-31 13:00:00 17.8 19 Sudoeste 29 Sudoeste 0 1005.8 1 76
2020-03-31 12:00:00 17.9 12 Sur 24 Sur 0 1005.6 1.3 77
2020-03-31 11:00:00 17.6 14 Sudoeste 25 Sudoeste 0 1005.1 1.4 78
2020-03-31 10:00:00 16.7 11 Sudoeste 24 Sudoeste 0 1004.8 1.2 80
2020-03-31 09:00:00 15.5 9 Sudoeste 20 Sur 0 1004.3 1.2 86
2020-03-31 08:00:00 14.4 9 Sudoeste 28 Oeste 0.9 1003.7 0.7 87
2020-03-31 07:00:00 14.5 15 Oeste 29 Sudoeste 0 1003.6 -0.4 85
2020-03-31 06:00:00 15.3 17 Sudoeste 37 Sur 0.5 1003.1 -0.2 86
2020-03-31 05:00:00 15.2 24 Sur 42 Sur 0 1003 0.5 89
2020-03-31 04:00:00 14.8 24 Sur 42 Sur 0 1004 -0.4 88
2020-03-31 03:00:00 14.7 21 Sur 40 Sudeste 0.1 1003.3 -1.9 91
2020-03-31 02:00:00 14.6 24 Sudeste 43 Sur 9.6 1002.5 -3.7 95
2020-03-31 01:00:00 13.6 8 Norte 26 Este 13.6 1004.4 -2.1 96
2020-03-31 00:00:00 14.2 8 Este 18 Este 8.9 1005.2 -1.6 94
2020-03-30 23:00:00 15 16 Este 23 Sudeste 5.6 1006.2 -1.3 91
2020-03-30 22:00:00 15.1 7 Nordeste 21 Sudeste 1.9 1006.5 -1.5 88
2020-03-30 21:00:00 15.9 7 Sudeste 19 Sur 0.3 1006.8 -2.1 81
2020-03-30 20:00:00 16.3 11 Sur 18 Sudeste 0 1007.5 -2.6 80
2020-03-30 19:00:00 16.6 10 Sudoeste 19 Sur 0 1008 -2.7 72
2020-03-30 18:00:00 17.2 11 Sur 24 Sudoeste 0 1008.9 -2.3 69
2020-03-30 17:00:00 17.4 12 Sudoeste 27 Sudoeste 0 1010.1 -1.7 70
2020-03-30 16:00:00 17.1 13 Sur 24 Sudoeste 0 1010.7 -1.5 78
2020-03-30 15:00:00 17.4 13 Sur 26 Sur 0 1011.2 -1.6 75
2020-03-30 14:00:00 18 15 Sur 26 Sur 0 1011.8 -1.1 73
2020-03-30 13:00:00 17.8 13 Sur 26 Sur 0 1012.2 -1 70
2020-03-30 12:00:00 17.2 12 Sur 23 Sur 0 1012.8 -0.2 69
2020-03-30 11:00:00 15.8 13 Sudeste 18 Sudeste 0 1012.9 0 81
2020-03-30 10:00:00 14.7 13 Sudeste 19 Sudeste 0 1013.2 -0.1 86
2020-03-30 09:00:00 14.1 16 Sudeste 19 Sudeste 0 1013 -0.6 88
2020-03-30 08:00:00 13.8 13 Sudeste 16 Sudeste 0 1012.9 -1.3 90
2020-03-30 07:00:00 14 13 Sudeste 15 Sudeste 0 1013.3 -1.7 90
2020-03-30 06:00:00 14.3 11 Sudeste 13 Sudeste 0 1013.6 -1.9 89
2020-03-30 05:00:00 14.6 10 Sudeste 13 Sudeste 0 1014.2 -1.9 87
2020-03-30 04:00:00 14.7 8 Sudeste 11 Sudeste 0 1015 -1.8 86
2020-03-30 03:00:00 14.6 9 Sudeste 12 Sudeste 0 1015.5 -1.5 87
2020-03-30 02:00:00 15.1 7 Sudeste 12 Sudeste 0 1016.1 -1 85
2020-03-30 01:00:00 15.4 6 Sudeste 14 Sudeste 0 1016.8 -0.1 81
2020-03-30 00:00:00 15.5 8 Sur 13 Sur 0 1017 0.3 80
2020-03-29 23:00:00 15.6 4 Sur 11 Sudoeste 0 1017.1 0.2 76
2020-03-29 22:00:00 15.8 5 Sudoeste 12 Sur 0 1016.9 -0.1 72
2020-03-29 21:00:00 16 6 Sudoeste 13 Sudoeste 0 1016.7 -0.1 72
2020-03-29 20:00:00 17 7 Sudoeste 16 Sudoeste 0 1016.9 -0.7 72
2020-03-29 19:00:00 17.4 10 Sudoeste 18 Sur 0 1017 -0.9 71
2020-03-29 18:00:00 17.8 11 Sur 22 Sudoeste 0 1016.8 -1.5 70
2020-03-29 17:00:00 19 12 Sudoeste 23 Sudoeste 0 1017.6 -1 63
2020-03-29 16:00:00 18.7 12 Sudoeste 24 Sur 0 1017.9 -1.1 64
2020-03-29 15:00:00 18.4 14 Sur 25 Sur 0 1018.3 -1.1 67
2020-03-29 14:00:00 18.5 13 Sur 23 Sur 0 1018.6 -0.5 64
2020-03-29 13:00:00 18.3 7 Sur 17 Este 0 1019 0 66
2020-03-29 12:00:00 17.6 12 Sudeste 19 Este 0 1019.4 0.6 65
2020-03-29 11:00:00 16.1 11 Este 19 Este 0 1019.1 0.8 72
2020-03-29 10:00:00 13.1 7 Nordeste 17 Nordeste 0 1019 1.1 80
2020-03-29 09:00:00 12.3 7 Nordeste 14 Nordeste 0 1018.8 1 83
2020-03-29 08:00:00 12.7 8 Nordeste 20 Este 0 1018.3 0.1 81
2020-03-29 07:00:00 13.1 14 Este 26 Este 0 1017.9 -0.6 82
2020-03-29 06:00:00 13.6 21 Este 28 Este 0 1017.8 -1.1 81
2020-03-29 05:00:00 13.6 17 Este 30 Sudeste 0 1018.2 -0.8 80
2020-03-29 03:00:00 14.1 24 Este 30 Sudeste 0 1018.9 -0.1 80
2020-03-29 01:00:00 14.3 22 Este 32 Sudeste 0 1019 0.3 81
2020-03-29 00:00:00 14.5 26 Sudeste 34 Este 0 1019.1 1 79
2020-03-28 23:00:00 14.6 23 Sudeste 34 Sudeste 0 1019 1.7 78
2020-03-28 22:00:00 14.7 22 Sudeste 30 Este 0 1018.7 1.7 76
2020-03-28 21:00:00 15.3 20 Sudeste 31 Sudeste 0 1018.1 1.8 75
2020-03-28 20:00:00 16.3 17 Sudeste 22 Sudeste 0 1017.3 1.3 70
2020-03-28 19:00:00 17 7 Sur 18 Sur 0 1017 1.1 62
2020-03-28 18:00:00 17.6 11 Sudoeste 20 Sudoeste 0 1016.3 0.4 56
2020-03-28 17:00:00 18.2 13 Sudoeste 21 Sudoeste 0 1016 -0.2 55
2020-03-28 16:00:00 18.7 9 Sudoeste 21 Sur 0 1015.9 -0.5 55
2020-03-28 15:00:00 18.4 12 Sur 21 Sudoeste 0 1015.9 -0.6 57
2020-03-28 14:00:00 18.1 12 Sur 21 Sur 0 1016.2 0 60
2020-03-28 13:00:00 18.1 9 Sur 21 Sur 0 1016.4 0.7 61
2020-03-28 12:00:00 17.7 9 Sur 19 Sur 0 1016.5 1.5 60
2020-03-28 11:00:00 17.1 10 Sur 17 Sudeste 0 1016.2 1.8 64
2020-03-28 10:00:00 15.3 12 Este 17 Este 0 1015.7 2 75
2020-03-28 09:00:00 13.7 13 Este 17 Este 0 1015 1.8 81
2020-03-28 08:00:00 12.4 8 Este 12 Este 0 1014.4 1.6 86
2020-03-28 07:00:00 12.2 5 Este 10 Este 0 1013.7 0.9 87
2020-03-28 06:00:00 12.4 6 Este 13 Este 0 1013.2 0.3 87
2020-03-28 05:00:00 12.2 6 Este 12 Este 0 1012.8 -0.3 88
2020-03-28 04:00:00 12.7 7 Este 16 Sudeste 0 1012.8 -0.3 85
2020-03-28 03:00:00 13.4 14 Sudeste 17 Sudeste 0 1012.9 -0.1 84
2020-03-28 02:00:00 13.8 11 Sudeste 16 Sudeste 0 1013.1 0.3 82
2020-03-28 01:00:00 14 13 Sudeste 17 Sudeste 0 1013.1 0.7 82
2020-03-28 00:00:00 14.3 12 Sudeste 14 Sudeste 0 1013 1.2 79
2020-03-27 23:00:00 14.4 5 Sur 10 Sur 0 1012.8 1.8 74
2020-03-27 22:00:00 14 0 Calma 7 Sudoeste 0 1012.4 1.6 74
2020-03-27 21:00:00 14.2 4 Sudoeste 14 Oeste 0 1011.8 1 71
2020-03-27 20:00:00 14.7 9 Oeste 16 Oeste 0 1011 0.8 71
2020-03-27 19:00:00 16 10 Oeste 19 Oeste 0 1010.8 0.5 67
2020-03-27 18:00:00 16.5 11 Oeste 22 Sudoeste 0 1010.8 0.5 68
2020-03-27 17:00:00 17 12 Sudoeste 21 Sudoeste 0 1010.2 -1.1 69
2020-03-27 16:00:00 17.4 10 Sudoeste 19 Oeste 0 1010.3 -1.3 67
2020-03-27 15:00:00 16.9 7 Sur 15 Sur 0 1010.3 -1.4 67
2020-03-27 14:00:00 15.3 3 Norte 10 Noroeste 0 1011.3 -0.5 71
2020-03-27 13:00:00 14.4 7 Norte 13 Norte 0 1011.6 0.4 75
2020-03-27 12:00:00 14 8 Norte 12 Noroeste 0 1011.7 1.1 78
2020-03-27 11:00:00 13.4 8 Noroeste 14 Noroeste 0 1011.8 1.3 80
2020-03-27 10:00:00 13.4 7 Noroeste 13 Noroeste 0 1011.2 1.3 79
2020-03-27 09:00:00 13.2 10 Noroeste 18 Noroeste 0 1010.6 1 79
2020-03-27 08:00:00 13.3 9 Oeste 19 Noroeste 0 1010.5 0.8 80
2020-03-27 07:00:00 13.4 11 Noroeste 20 Noroeste 0 1009.9 0.2 81
2020-03-27 06:00:00 13.7 12 Noroeste 21 Noroeste 0 1009.6 -0.6 80
2020-03-27 05:00:00 14 10 Noroeste 21 Norte 0 1009.7 -0.8 80
2020-03-27 04:00:00 14.3 12 Noroeste 24 Noroeste 0 1009.7 -1.1 80
2020-03-27 03:00:00 14.6 14 Noroeste 22 Noroeste 0 1010.2 -1 81
2020-03-27 02:00:00 15 13 Noroeste 30 Noroeste 0 1010.5 -0.7 82
2020-03-27 01:00:00 15.6 17 Noroeste 26 Noroeste 0 1010.8 -0.3 79
2020-03-27 00:00:00 16.3 12 Noroeste 19 Noroeste 0 1011.2 0.4 82
2020-03-26 23:00:00 16.4 10 Oeste 23 Oeste 0 1011.2 0.4 84
2020-03-26 22:00:00 16.5 14 Oeste 29 Oeste 0 1011.1 0.4 84
2020-03-26 21:00:00 16.5 16 Oeste 28 Oeste 0 1010.8 0.1 82
2020-03-26 20:00:00 16.6 17 Oeste 30 Oeste 0 1010.8 -0.5 82
2020-03-26 19:00:00 17.6 14 Oeste 31 Oeste 0 1010.7 -1.1 76
2020-03-26 18:00:00 18.5 15 Oeste 31 Oeste 0 1010.7 -1.4 69
2020-03-26 17:00:00 18.7 15 Oeste 28 Oeste 0 1011.3 -1.4 74
2020-03-26 16:00:00 18.5 15 Sudoeste 26 Oeste 0 1011.8 -1.3 76
2020-03-26 15:00:00 17.9 16 Oeste 27 Oeste 0 1012.1 -1.6 75
2020-03-26 14:00:00 17.6 17 Oeste 27 Oeste 0 1012.7 -1.1 75
2020-03-26 13:00:00 17.5 14 Oeste 23 Oeste 0 1013.1 -0.3 71
2020-03-26 12:00:00 16.9 14 Oeste 23 Oeste 0 1013.7 0.2 75
2020-03-26 11:00:00 16.3 15 Noroeste 22 Noroeste 0 1013.8 0.2 79
2020-03-26 10:00:00 16.4 14 Oeste 24 Noroeste 0 1013.4 -0.2 85
2020-03-26 09:00:00 15.9 8 Sudoeste 15 Sudoeste 0 1013.5 0 85
2020-03-26 08:00:00 14 6 Sur 12 Sur 0 1013.6 -0.3 89
2020-03-26 07:00:00 12.9 7 Sur 13 Sur 0 1013.6 -0.8 86
2020-03-26 06:00:00 12.9 6 Sudeste 11 Sudeste 0 1013.5 -1.4 83
2020-03-26 05:00:00 12.7 7 Este 10 Este 0 1013.9 -1.7 85
2020-03-26 04:00:00 12.9 3 Este 9 Sudeste 0 1014.4 -1.4 84
2020-03-26 03:00:00 13.1 3 Sudeste 10 Sudeste 0 1014.9 -1.3 82
2020-03-26 02:00:00 13.2 7 Sudeste 14 Sudeste 0 1015.6 -0.8 80
2020-03-26 01:00:00 13.3 10 Sudeste 17 Este 0 1015.8 -0.7 82
2020-03-26 00:00:00 13.6 12 Sudeste 19 Sudeste 0 1016.2 -0.1 81
2020-03-25 23:00:00 13.9 15 Sudeste 21 Sudeste 0 1016.4 0.6 80
2020-03-25 22:00:00 14.6 17 Sudeste 21 Sudeste 0 1016.5 0.9 77
2020-03-25 21:00:00 15.5 12 Sudeste 18 Sur 0 1016.3 0.8 78
2020-03-25 20:00:00 16 15 Sur 28 Sur 0 1015.8 0.2 79
2020-03-25 19:00:00 16.8 14 Sur 23 Sur 0 1015.6 -0.2 76
2020-03-25 18:00:00 17.8 12 Sur 23 Sur 0 1015.5 -0.7 73
2020-03-25 17:00:00 19 5 Sudeste 12 Sudeste 0 1015.6 -1 63
2020-03-25 16:00:00 18.9 10 Este 18 Este 0 1015.8 -1.1 63
2020-03-25 15:00:00 18 10 Este 17 Este 0 1016.2 -0.7 65
2020-03-25 14:00:00 18 12 Sudeste 21 Sudeste 0 1016.6 -0.2 65
2020-03-25 13:00:00 17.3 18 Sudeste 30 Sudeste 0 1016.9 0.4 68
2020-03-25 12:00:00 16.5 23 Sudeste 40 Sudeste 0 1016.9 0.8 71
2020-03-25 11:00:00 15.2 24 Sudeste 39 Sudeste 0 1016.8 1 79
2020-03-25 10:00:00 14.8 23 Este 30 Este 0 1016.5 1.5 84
2020-03-25 09:00:00 14.5 16 Este 25 Este 0 1016.1 1.7 86
2020-03-25 08:00:00 14.3 6 Nordeste 13 Sudeste 0 1015.8 1.7 87
2020-03-25 07:00:00 14.6 10 Este 15 Este 0 1015 1 85
2020-03-25 06:00:00 14.5 8 Este 12 Este 0 1014.4 0.4 84
2020-03-25 05:00:00 14.1 4 Sudeste 9 Sudeste 0 1014.1 0.2 84
2020-03-25 04:00:00 14.2 4 Sudeste 13 Sudeste 0 1014 0.1 84
2020-03-25 03:00:00 14.2 5 Sudeste 21 Sudeste 0 1014 0.5 85
2020-03-25 02:00:00 14.6 18 Sudeste 26 Sudeste 0 1013.9 0.6 84
2020-03-25 01:00:00 14.5 11 Sudeste 22 Sudeste 0 1013.9 1.3 87
2020-03-25 00:00:00 14.8 19 Sudeste 25 Sudeste 0 1013.5 1.6 85
2020-03-24 23:00:00 15.1 23 Sudeste 32 Sudeste 0 1013.3 2.2 83
2020-03-24 22:00:00 14.9 10 Sudeste 14 Sudeste 0 1012.6 2.1 87
2020-03-24 21:00:00 15.1 6 Sudeste 10 Sudeste 0 1011.9 1.7 87
2020-03-24 20:00:00 15.2 3 Este 6 Sudeste 0 1011.1 1.5 87
2020-03-24 19:00:00 15.4 3 Este 10 Este 0 1010.5 0.8 86
2020-03-24 18:00:00 15.3 4 Este 10 Este 0 1010.2 0.3 87
2020-03-24 17:00:00 14.7 5 Este 8 Sudeste 0 1009.6 -0.8 89
2020-03-24 16:00:00 14.4 6 Sudeste 9 Sudeste 0.1 1009.7 0.3 88
2020-03-24 15:00:00 13.7 3 Sur 20 Sudeste 0.3 1009.9 -0.3 89
2020-03-24 14:00:00 14 13 Sudeste 21 Norte 0 1010.4 1.2 89
2020-03-24 13:00:00 13.5 13 Noroeste 18 Norte 0.2 1009.4 0 88
2020-03-24 12:00:00 12.7 13 Nordeste 23 Norte 0.2 1010.2 0.5 92
2020-03-24 11:00:00 12.5 13 Noroeste 16 Norte 1.3 1009.2 0 94
2020-03-24 10:00:00 12 0 Calma 18 Nordeste 2.4 1009.4 1.2 93
2020-03-24 09:00:00 11.7 12 Nordeste 20 Nordeste 1.1 1009.7 1.6 92
2020-03-24 08:00:00 12 13 Nordeste 22 Nordeste 0 1009.2 1.2 91
2020-03-24 07:00:00 12.4 18 Norte 27 Norte 0.1 1008.2 -0.3 91
2020-03-24 06:00:00 12.4 13 Norte 18 Nordeste 0 1008.1 -1.1 89
2020-03-24 05:00:00 12.5 14 Norte 27 Norte 0 1008 -1.8 86
2020-03-24 04:00:00 13.1 18 Nordeste 27 Norte 0 1008.5 -1.8 82
2020-03-24 03:00:00 13.4 19 Norte 32 Norte 0 1009.2 -1.3 83
2020-03-24 02:00:00 13.5 22 Norte 33 Nordeste 0 1009.8 -0.7 79
2020-03-24 01:00:00 13.6 24 Norte 31 Nordeste 0 1010.3 -0.2 81
2020-03-24 00:00:00 14 22 Norte 28 Norte 0 1010.5 0.3 78
2020-03-23 23:00:00 14.4 16 Norte 22 Norte 0 1010.5 0.8 82
2020-03-23 22:00:00 14.5 4 Este 15 Este 0 1010.5 0.7 71
2020-03-23 21:00:00 15 12 Este 27 Este 0 1010.2 0.7 67
2020-03-23 20:00:00 15.8 20 Este 30 Sudeste 0 1009.7 0 65
2020-03-23 19:00:00 16.8 14 Este 28 Sudeste 0 1009.8 0.1 62
2020-03-23 18:00:00 17.5 21 Sudeste 28 Sudeste 0 1009.5 -0.5 62
2020-03-23 17:00:00 16.4 10 Sudeste 25 Sudeste 0 1009.7 -1 70
2020-03-23 16:00:00 16.9 23 Sudeste 32 Sudeste 0 1009.7 -2.1 69
2020-03-23 15:00:00 17.6 10 Noroeste 18 Norte 0 1010 -2.2 61
2020-03-23 14:00:00 16.8 11 Norte 20 Norte 0 1010.7 -1.6 59
2020-03-23 13:00:00 17.1 11 Nordeste 23 Este 0 1011.8 -0.8 57
2020-03-23 12:00:00 17.4 8 Este 18 Este 0 1012.2 -0.2 59
2020-03-23 11:00:00 15.9 8 Nordeste 18 Nordeste 0 1012.3 0 68
2020-03-23 10:00:00 14.5 5 Este 12 Este 0 1012.6 0.7 80
2020-03-23 09:00:00 12.7 5 Nordeste 10 Nordeste 0 1012.4 0.7 82
2020-03-23 08:00:00 11 5 Nordeste 12 Norte 0 1012.3 0.4 90
2020-03-23 07:00:00 11.2 3 Norte 9 Nordeste 0 1011.9 0.1 89
2020-03-23 06:00:00 11.8 6 Nordeste 9 Este 0 1011.7 -0.4 87
2020-03-23 05:00:00 12.1 4 Nordeste 9 Nordeste 0 1011.9 -0.5 85
2020-03-23 04:00:00 12.4 7 Nordeste 11 Nordeste 0 1011.8 -1 82
2020-03-23 03:00:00 12.5 6 Este 10 Este 0 1012.1 -0.8 85
2020-03-23 02:00:00 12.7 5 Este 8 Este 0 1012.4 -0.5 87
2020-03-23 01:00:00 12.9 6 Nordeste 8 Nordeste 0 1012.8 0.2 81
2020-03-23 00:00:00 13.1 3 Nordeste 5 Nordeste 0 1012.9 0.5 81
2020-03-22 23:00:00 13.4 0 Calma 6 Noroeste 0 1012.9 1 75
2020-03-22 22:00:00 13.9 5 Noroeste 7 Noroeste 0 1012.6 1.1 73
2020-03-22 21:00:00 13.4 4 Oeste 8 Oeste 0 1012.4 1.3 75
2020-03-22 20:00:00 14.5 6 Oeste 14 Oeste 0 1011.9 1.1 72
2020-03-22 19:00:00 15.5 10 Noroeste 18 Noroeste 0 1011.5 0.8 65
2020-03-22 18:00:00 15.9 9 Oeste 17 Oeste 0 1011.1 0.1 67
2020-03-22 17:00:00 15.9 10 Oeste 20 Oeste 0 1010.8 -0.4 66
2020-03-22 16:00:00 15.9 10 Oeste 20 Sudoeste 0 1010.7 -1 68
2020-03-22 15:00:00 16.2 12 Oeste 19 Oeste 0 1011 -0.9 64
2020-03-22 14:00:00 16.8 10 Oeste 17 Sudoeste 0 1011.2 -0.6 61
2020-03-22 13:00:00 16.7 5 Sudoeste 11 Oeste 0 1011.7 0.3 63
2020-03-22 12:00:00 15.8 3 Sudeste 8 Este 0 1011.9 1.1 62
2020-03-22 11:00:00 14.7 5 Este 8 Este 0 1011.8 1.4 76
2020-03-22 10:00:00 13.5 6 Este 10 Este 0 1011.4 1.3 82
2020-03-22 09:00:00 12.2 5 Este 8 Este 0 1010.8 1 89
2020-03-22 08:00:00 11.4 5 Este 8 Este 0 1010.4 0.6 93
2020-03-22 07:00:00 11.2 2 Nordeste 8 Este 0 1010.1 0.2 93
2020-03-22 06:00:00 11.8 5 Este 9 Este 0 1009.8 -0.3 92
2020-03-22 05:00:00 12 6 Este 13 Este 0 1009.8 -0.5 91
2020-03-22 04:00:00 12.3 11 Sudeste 16 Sudeste 0 1009.9 -0.8 89
2020-03-22 03:00:00 12 0 Calma 24 Noroeste 3.6 1010.1 -1.2 87
2020-03-22 02:00:00 13.2 6 Sudoeste 17 Sudoeste 0 1010.3 -1.2 83
2020-03-22 01:00:00 12.8 8 Sudoeste 31 Sudoeste 0.1 1010.7 -1 80
2020-03-22 00:00:00 13 14 Sudoeste 26 Oeste 0.2 1011.3 0.2 77
2020-03-21 23:00:00 13 8 Sudoeste 39 Sudoeste 0.3 1011.5 0.3 79
2020-03-21 22:00:00 14 10 Sudoeste 24 Sudoeste 0.1 1011.7 0.8 77
2020-03-21 21:00:00 14.4 15 Oeste 27 Oeste 0 1011.1 0.6 68
2020-03-21 20:00:00 14.7 17 Oeste 30 Oeste 0 1011.2 1.2 71
2020-03-21 19:00:00 15.1 18 Oeste 36 Oeste 0 1010.9 0.8 69
2020-03-21 18:00:00 15.6 19 Oeste 35 Sudoeste 0 1010.5 0.1 68
2020-03-21 17:00:00 15.9 19 Oeste 38 Sudoeste 0 1010 -0.9 69
2020-03-21 16:00:00 14.3 15 Sudoeste 39 Sur 1.1 1010.1 -2.5 83
2020-03-21 15:00:00 15.5 23 Sur 48 Sur 0 1010.4 -3.2 79
2020-03-21 14:00:00 13.7 29 Sur 57 Sudoeste 0.4 1010.9 -2.5 86
2020-03-21 13:00:00 13.1 15 Sur 32 Sur 2.9 1012.6 -1 90
2020-03-21 12:00:00 12.7 11 Sur 44 Sudoeste 3 1013.6 0.1 87
2020-03-21 11:00:00 15.4 17 Sur 30 Sudoeste 0 1013.4 0 76
2020-03-21 10:00:00 15.5 12 Sur 23 Sudoeste 0 1013.6 0.3 69
2020-03-21 09:00:00 14.4 10 Sudoeste 23 Sudoeste 0 1013.5 0.4 70
2020-03-21 08:00:00 13 12 Oeste 36 Noroeste 0 1013.4 0.1 76
2020-03-21 07:00:00 13.5 13 Oeste 26 Sudoeste 0 1013.3 -0.2 72
2020-03-21 06:00:00 12.9 12 Oeste 22 Oeste 0 1013.1 -0.9 76
2020-03-21 05:00:00 12.6 4 Oeste 38 Oeste 0.3 1013.3 -0.5 80
2020-03-21 04:00:00 13.4 15 Oeste 24 Oeste 0.3 1013.5 -0.4 74
2020-03-21 03:00:00 14.1 15 Oeste 23 Oeste 0 1014 -0.6 74
2020-03-21 02:00:00 13.5 9 Oeste 20 Oeste 0 1013.8 -0.1 84
2020-03-21 01:00:00 13.4 13 Oeste 26 Oeste 0 1013.9 1 84
2020-03-21 00:00:00 13.7 17 Oeste 30 Oeste 0.6 1014.6 2.2 85
2020-03-20 23:00:00 13 17 Oeste 39 Sudeste 8.9 1013.9 1.9 90
2020-03-20 22:00:00 15.2 29 Sudeste 40 Sudeste 2.5 1012.9 1.6 91
2020-03-20 21:00:00 15.2 27 Sudeste 50 Sudeste 0.3 1012.4 1.2 89
2020-03-20 20:00:00 15.2 35 Sudeste 47 Sudeste 0.4 1012 0.2 87
2020-03-20 19:00:00 16.6 36 Sudeste 51 Sudeste 0 1011.3 -1 78
2020-03-20 18:00:00 17 40 Sudeste 51 Sudeste 0 1011.2 -1.6 75
2020-03-20 17:00:00 17.4 36 Sudeste 50 Sudeste 0 1011.8 -1.6 75
2020-03-20 16:00:00 17.8 36 Sudeste 47 Sudeste 0 1012.3 -1.7 72
2020-03-20 15:00:00 17.7 37 Sudeste 57 Sudeste 0 1012.8 -1.6 74
2020-03-20 14:00:00 17.2 39 Sudeste 50 Sudeste 0 1013.4 -0.7 75
2020-03-20 13:00:00 16.6 32 Sudeste 50 Sudeste 0 1014 -0.3 78
2020-03-20 12:00:00 16.7 33 Sudeste 45 Este 0 1014.4 0.8 78
2020-03-20 11:00:00 16.5 31 Sudeste 42 Sudeste 0 1014.1 1 78
2020-03-20 10:00:00 15.3 22 Sudeste 38 Sudeste 0.6 1014.3 1.1 87
2020-03-20 09:00:00 15.4 27 Sudeste 34 Sudeste 0 1013.6 0.5 83
2020-03-20 08:00:00 15 22 Sudeste 32 Este 0 1013.1 0.4 84
2020-03-20 07:00:00 15 17 Este 23 Este 0 1013.2 0.5 83
2020-03-20 06:00:00 15.1 17 Este 32 Este 0.3 1013.1 -0.2 83
2020-03-20 05:00:00 15.1 23 Este 38 Este 0 1012.7 -1.3 80
2020-03-20 04:00:00 15.4 29 Este 38 Este 0 1012.7 -1.7 78
2020-03-20 03:00:00 15.5 23 Este 37 Este 0 1013.3 -1.9 79
2020-03-20 02:00:00 15.7 28 Este 50 Este 0 1014 -0.9 72
2020-03-20 01:00:00 16 29 Este 41 Este 0 1014.4 -0.3 74
2020-03-20 00:00:00 16.3 27 Sudeste 41 Este 0 1015.2 1.1 75
2020-03-19 23:00:00 16.4 27 Este 46 Este 0 1014.9 1.5 74
2020-03-19 22:00:00 16.3 30 Este 47 Este 0 1014.7 1.6 76
2020-03-19 21:00:00 16.5 30 Este 48 Sudeste 0 1014.1 0.8 75
2020-03-19 20:00:00 16.8 39 Este 50 Este 0 1013.4 -0.3 73
2020-03-19 19:00:00 17.3 36 Este 48 Este 0 1013.1 -0.8 72
2020-03-19 18:00:00 18.1 31 Este 49 Este 0 1013.3 -1.5 69
2020-03-19 17:00:00 18.4 31 Este 54 Este 0 1013.7 -1.7 65
2020-03-19 16:00:00 18.6 36 Este 60 Este 0 1013.9 -2.2 67
2020-03-19 15:00:00 18.6 39 Este 54 Este 0 1014.8 -1.4 68
2020-03-19 14:00:00 18.4 41 Este 62 Este 0 1015.4 -0.9 69
2020-03-19 13:00:00 17.9 39 Este 58 Este 0 1016.1 -0.9 70
2020-03-19 12:00:00 18 38 Este 63 Este 0 1016.2 0 69
2020-03-19 11:00:00 17.5 40 Este 57 Este 0 1016.3 0.4 70
2020-03-19 10:00:00 17.2 23 Este 45 Este 0 1017 1.8 70
2020-03-19 09:00:00 16.6 33 Este 47 Este 0 1016.2 1.6 72
2020-03-19 08:00:00 16.5 11 Nordeste 24 Nordeste 0 1015.9 0.2 71
2020-03-19 07:00:00 16.5 12 Este 49 Este 0 1015.2 -1.3 75
2020-03-19 06:00:00 16.3 22 Este 56 Este 0 1014.6 -3.2 75
2020-03-19 05:00:00 16.5 23 Este 63 Este 0 1015.7 -2.2 76
2020-03-19 04:00:00 16.5 39 Este 62 Este 0 1016.5 -1.4 78
2020-03-19 03:00:00 16.6 42 Sudeste 62 Este 0 1017.8 0.5 76
2020-03-19 02:00:00 16.7 39 Este 58 Sudeste 0 1017.9 0.5 74
2020-03-19 01:00:00 16.9 43 Este 66 Sudeste 0 1017.9 0.1 73
2020-03-19 00:00:00 17 45 Sudeste 66 Este 0 1017.3 0.2 72
2020-03-18 23:00:00 16.8 45 Sudeste 62 Sudeste 0 1017.4 0.5 74
2020-03-18 22:00:00 16.8 36 Este 52 Este 0 1017.8 1.6 72
2020-03-18 21:00:00 16.9 37 Este 51 Este 0 1017.1 1.2 73
2020-03-18 20:00:00 17.4 21 Este 47 Este 0 1016.9 1.5 69
2020-03-18 19:00:00 17.9 22 Este 47 Este 0 1016.2 0.6 66
2020-03-18 18:00:00 18.7 17 Este 51 Este 0 1015.9 0.1 64
2020-03-18 17:00:00 19.2 23 Este 79 Este 0 1015.4 -1.2 62
2020-03-18 16:00:00 19.1 48 Este 72 Este 0 1015.6 -1.7 63
2020-03-18 15:00:00 20 26 Este 70 Este 0 1015.8 -1.9 62
2020-03-18 14:00:00 20.3 21 Este 64 Este 0 1016.6 -0.8 61
2020-03-18 13:00:00 19.6 30 Este 72 Sudeste 0 1017.3 0.5 63
2020-03-18 12:00:00 18.6 37 Este 72 Este 0 1017.7 1.2 67
2020-03-18 11:00:00 18.1 44 Este 73 Este 0 1017.4 0.9 69
2020-03-18 10:00:00 17.5 43 Este 65 Este 0 1016.8 0.5 73
2020-03-18 09:00:00 17 28 Este 63 Este 0 1016.5 0.5 75
2020-03-18 08:00:00 16.8 22 Este 59 Este 0 1016.5 0.7 75
2020-03-18 07:00:00 16.8 20 Este 45 Este 0 1016.3 0.2 75
2020-03-18 06:00:00 16.9 18 Este 46 Este 0 1016 -0.7 75
2020-03-18 05:00:00 16.6 28 Este 51 Este 0 1015.8 -1.2 78
2020-03-18 04:00:00 16.5 36 Este 55 Este 0 1016.1 -1.4 80
2020-03-18 03:00:00 13.9 7 Norte 19 Nordeste 0 1016.7 -1.6 87
2020-03-18 02:00:00 14.1 17 Nordeste 32 Nordeste 0.3 1017 -1.7 89
2020-03-18 01:00:00 14.3 8 Este 17 Este 18.8 1017.5 -0.3 95
2020-03-18 00:00:00 14.2 4 Sur 19 Sur 11.3 1018.3 0.6 91
2020-03-17 23:00:00 14.7 10 Sur 26 Este 2 1018.7 1.2 84
2020-03-17 22:00:00 15.2 6 Nordeste 25 Este 0 1017.8 0.1 69
2020-03-17 21:00:00 15.6 8 Este 31 Este 0 1017.7 0.2 62
2020-03-17 20:00:00 15.7 18 Este 37 Este 0 1017.5 0 63
2020-03-17 19:00:00 16 27 Este 43 Este 0 1017.7 0.4 66
2020-03-17 18:00:00 15.9 18 Este 39 Este 0 1017.5 0.2 68
2020-03-17 17:00:00 15.7 24 Este 42 Este 0 1017.5 -0.1 66
2020-03-17 16:00:00 15.3 38 Este 55 Sudeste 0 1017.3 -0.9 71
2020-03-17 15:00:00 16.5 30 Sudeste 49 Este 0 1017.3 -1.1 60
2020-03-17 14:00:00 15.4 39 Sudeste 51 Este 0 1017.6 0.1 63
2020-03-17 13:00:00 13 7 Este 30 Sudeste 0 1018.2 0.7 84
2020-03-17 12:00:00 11.4 22 Sudeste 55 Sudeste 2.9 1018.4 1.7 83
2020-03-17 11:00:00 10.7 33 Sudeste 51 Sudeste 5.9 1017.5 0.9 96
2020-03-17 10:00:00 9.3 18 Este 28 Sudeste 5.8 1017.5 1.3 98
2020-03-17 09:00:00 9 20 Norte 28 Norte 3.4 1016.7 0.5 96
2020-03-17 08:00:00 10.5 19 Norte 24 Norte 0.5 1016.6 0.7 86
2020-03-17 07:00:00 10.5 9 Nordeste 19 Este 0.4 1016.2 -0.1 82
2020-03-17 06:00:00 10.4 8 Nordeste 17 Este 0 1016.2 -0.8 83
2020-03-17 05:00:00 10.4 10 Nordeste 16 Nordeste 0.1 1015.9 -1.4 85
2020-03-17 04:00:00 10.4 7 Este 22 Nordeste 0 1016.3 -0.8 85
2020-03-17 03:00:00 10.4 15 Nordeste 31 Norte 0 1017 -0.4 86
2020-03-17 02:00:00 11.1 20 Nordeste 29 Norte 0 1017.3 -0.4 79
2020-03-17 01:00:00 12.4 18 Norte 30 Norte 0 1017.1 -0.2 69
2020-03-17 00:00:00 13.3 5 Este 14 Este 0 1017.4 0.9 52
2020-03-16 23:00:00 13.5 7 Nordeste 18 Nordeste 0 1017.7 1.8 51
2020-03-16 22:00:00 14.3 15 Nordeste 24 Norte 0 1017.3 1.9 52
2020-03-16 21:00:00 15.4 19 Norte 30 Norte 0 1016.5 1 46
2020-03-16 20:00:00 16.2 20 Noroeste 27 Noroeste 0 1015.9 0.4 44
2020-03-16 19:00:00 16.5 18 Oeste 29 Oeste 0 1015.4 -0.4 48
2020-03-16 18:00:00 16.3 19 Oeste 41 Noroeste 0 1015.5 -0.6 48
2020-03-16 17:00:00 16.6 26 Noroeste 41 Noroeste 0 1015.5 -1.3 46
2020-03-16 16:00:00 15.9 28 Noroeste 46 Noroeste 0 1015.8 -1.6 47
2020-03-16 15:00:00 15.2 34 Noroeste 51 Oeste 0 1016.1 -1.8 50
2020-03-16 14:00:00 14.2 26 Noroeste 40 Noroeste 0 1016.8 -1.3 56
2020-03-16 13:00:00 13.2 20 Oeste 41 Noroeste 0 1017.4 -0.8 62
2020-03-16 12:00:00 12.5 30 Noroeste 43 Noroeste 0 1017.9 0.1 61
2020-03-16 11:00:00 12.7 24 Noroeste 44 Noroeste 0 1018.1 0.8 60
2020-03-16 10:00:00 11.9 21 Noroeste 33 Norte 0 1018.2 1.8 66
2020-03-16 09:00:00 11.2 26 Noroeste 44 Norte 0 1017.8 2.3 69
2020-03-16 08:00:00 11.5 30 Noroeste 44 Norte 0 1017.3 2.5 63
2020-03-16 07:00:00 12.2 30 Noroeste 38 Noroeste 0 1016.4 1.9 59
2020-03-16 06:00:00 12.5 30 Noroeste 40 Norte 0 1015.5 0.8 57
2020-03-16 05:00:00 13.2 26 Noroeste 36 Noroeste 0 1014.8 0.2 61
2020-03-16 04:00:00 14.1 26 Noroeste 42 Noroeste 0 1014.5 -0.3 62
2020-03-16 03:00:00 14.8 29 Noroeste 40 Norte 0 1014.7 -0.7 64
2020-03-16 02:00:00 15.7 26 Noroeste 35 Noroeste 0.1 1014.6 -0.7 71
2020-03-16 01:00:00 16.1 4 Este 15 Sudeste 0 1014.8 -0.1 79
2020-03-16 00:00:00 16.1 8 Este 14 Este 0 1015.4 0.8 81
2020-03-15 23:00:00 16.6 6 Este 12 Nordeste 0 1015.3 1 80
2020-03-15 22:00:00 16.9 7 Norte 18 Noroeste 0 1014.9 1.4 87
2020-03-15 21:00:00 17 10 Noroeste 26 Oeste 0 1014.6 0.8 84
2020-03-15 20:00:00 16.9 17 Noroeste 28 Noroeste 0 1014.3 0.3 83
2020-03-15 19:00:00 17.6 10 Noroeste 20 Noroeste 0 1013.5 -1 80
2020-03-15 18:00:00 18.3 14 Noroeste 21 Oeste 0 1013.8 -1.2 77
2020-03-15 17:00:00 18.9 10 Oeste 23 Oeste 0 1014 -1.7 73
2020-03-15 16:00:00 19.5 16 Oeste 26 Sudoeste 0 1014.5 -1.5 72
2020-03-15 15:00:00 19.1 13 Oeste 21 Oeste 0 1015 -1.5 73
2020-03-15 14:00:00 20.1 9 Sudoeste 25 Este 0 1015.7 -1.1 67
2020-03-15 13:00:00 19.4 21 Este 29 Sudeste 0 1016 -0.7 68
2020-03-15 12:00:00 20.2 19 Este 26 Este 0 1016.5 0.1 64
2020-03-15 11:00:00 18.6 15 Este 30 Este 0 1016.8 0.6 71
2020-03-15 10:00:00 18 18 Este 28 Este 0 1016.7 0.7 72
2020-03-15 09:00:00 15.9 21 Este 29 Este 0 1016.4 0.6 79
2020-03-15 08:00:00 15.6 18 Sudeste 26 Sudeste 0 1016.2 0.1 81
2020-03-15 07:00:00 15.3 16 Este 24 Este 0 1016 -0.4 80
2020-03-15 06:00:00 15.5 18 Sudeste 27 Sudeste 0 1015.8 -1.2 81
2020-03-15 05:00:00 15.4 15 Este 24 Este 0 1016.1 -1 81
2020-03-15 04:00:00 15.5 15 Este 29 Sudeste 0 1016.4 -0.8 82
2020-03-15 03:00:00 15.7 18 Sudeste 27 Sudeste 0 1017 -0.7 81
2020-03-15 02:00:00 15.5 18 Este 24 Este 0 1017.1 -0.6 81
2020-03-15 01:00:00 16 16 Este 22 Este 0 1017.2 -0.6 77
2020-03-15 00:00:00 16.1 6 Nordeste 14 Este 0 1017.7 0.3 85
2020-03-14 23:00:00 16.3 12 Este 18 Este 0 1017.7 0.7 79
2020-03-14 22:00:00 16.6 6 Este 11 Este 0 1017.8 0.9 80
2020-03-14 21:00:00 16.6 7 Norte 9 Norte 0 1017.4 0.1 84
2020-03-14 20:00:00 17 4 Oeste 9 Oeste 0 1017 -0.5 80
2020-03-14 19:00:00 17.5 7 Noroeste 14 Oeste 0 1016.9 -0.9 75
2020-03-14 18:00:00 18.5 9 Oeste 16 Noroeste 0 1017.3 -1.1 70
2020-03-14 17:00:00 19.1 10 Oeste 17 Oeste 0 1017.5 -1.8 67
2020-03-14 16:00:00 19.9 9 Oeste 18 Oeste 0 1017.8 -2 66
2020-03-14 15:00:00 19.8 10 Oeste 19 Noroeste 0 1018.4 -1.6 66
2020-03-14 14:00:00 19.1 10 Oeste 17 Oeste 0 1019.3 -1.1 68
2020-03-14 13:00:00 19.6 8 Oeste 15 Sudoeste 0 1019.8 -0.3 66
2020-03-14 12:00:00 18.6 7 Sur 15 Sudoeste 0 1020 0.3 69
2020-03-14 11:00:00 18.2 4 Este 12 Sudeste 0 1020.4 1.1 68
2020-03-14 10:00:00 17 8 Sudeste 19 Sudeste 0 1020.1 1 75
2020-03-14 09:00:00 15.5 8 Sudeste 14 Sudeste 0 1019.7 0.9 81
2020-03-14 08:00:00 15.2 6 Sudeste 9 Sudeste 0 1019.3 0.8 85
2020-03-14 07:00:00 14.6 7 Sudeste 15 Sudeste 0 1019.1 0.5 87
2020-03-14 06:00:00 14.8 7 Sudeste 15 Sudeste 0 1018.8 0 86
2020-03-14 05:00:00 14.2 12 Sudeste 18 Sudeste 0 1018.5 -0.6 91
2020-03-14 04:00:00 14.2 9 Sudeste 12 Sudeste 0 1018.6 -0.5 92
2020-03-14 03:00:00 14.3 3 Este 8 Este 0 1018.8 -0.4 91
2020-03-14 02:00:00 14.3 4 Este 8 Este 0 1019.1 0.2 91
2020-03-14 01:00:00 14.4 0 Calma 3 Sudoeste 0 1019.1 0.5 88
2020-03-14 00:00:00 14.5 3 Sudoeste 4 Oeste 0 1019.2 1 88
2020-03-13 23:00:00 14.7 3 Oeste 4 Oeste 0 1018.9 0.9 86
2020-03-13 22:00:00 15.2 4 Oeste 8 Noroeste 0 1018.6 0.8 85
2020-03-13 21:00:00 15.4 6 Oeste 11 Oeste 0 1018.2 0.7 83
2020-03-13 20:00:00 15.9 7 Oeste 13 Oeste 0 1018 0.1 81
2020-03-13 19:00:00 17.5 8 Sudoeste 13 Sudoeste 0 1017.8 -0.2 73
2020-03-13 18:00:00 17.9 5 Sudoeste 14 Sudoeste 0 1017.5 -0.9 71
2020-03-13 17:00:00 18.7 8 Sudoeste 17 Sudoeste 0 1017.9 -1.2 67
2020-03-13 16:00:00 18.7 9 Sudoeste 17 Sudoeste 0 1018 -1.4 68
2020-03-13 15:00:00 19.1 7 Sudoeste 18 Oeste 0 1018.4 -1.2 64
2020-03-13 14:00:00 18.9 6 Sudoeste 18 Sudoeste 0 1019.1 -0.5 64
2020-03-13 13:00:00 18.6 5 Sudoeste 14 Sudoeste 0 1019.4 0 66
2020-03-13 12:00:00 17.7 6 Sudoeste 15 Sudoeste 0 1019.6 0.7 70
2020-03-13 11:00:00 17 7 Sudoeste 17 Sudoeste 0 1019.6 1.1 71
2020-03-13 10:00:00 16.2 3 Sudoeste 13 Sudoeste 0 1019.4 1.6 76
2020-03-13 09:00:00 15.6 4 Sudoeste 12 Oeste 0 1018.9 1.1 77
2020-03-13 08:00:00 15.3 4 Sudoeste 10 Sudoeste 0 1018.5 0.6 79
2020-03-13 07:00:00 15.2 3 Sudoeste 11 Sudoeste 0 1017.8 -0.3 82
2020-03-13 06:00:00 15.2 4 Oeste 16 Sudoeste 0 1017.8 -0.6 83
2020-03-13 05:00:00 15.2 6 Sudoeste 17 Sudoeste 0 1017.9 -0.8 83
2020-03-13 04:00:00 15.3 5 Sudoeste 15 Sudoeste 0 1018.1 -0.5 84
2020-03-13 03:00:00 15.6 8 Sudoeste 16 Sudoeste 0 1018.4 -0.5 85
2020-03-13 02:00:00 15.9 5 Sur 12 Sudoeste 0 1018.7 0.3 87
2020-03-13 01:00:00 16.2 2 Oeste 9 Oeste 0 1018.6 0 90
2020-03-13 00:00:00 16 3 Oeste 9 Noroeste 0 1018.9 0.4 91
2020-03-12 23:00:00 16.6 3 Norte 12 Noroeste 0 1018.4 0.4 90
2020-03-12 22:00:00 16.5 4 Noroeste 9 Noroeste 0 1018.6 0.5 90
2020-03-12 21:00:00 16.5 6 Noroeste 13 Oeste 0 1018.5 0.7 90
2020-03-12 20:00:00 16.8 7 Noroeste 16 Noroeste 0 1018 0 90
2020-03-12 19:00:00 17.1 8 Oeste 15 Noroeste 0 1018.1 -0.6 89
2020-03-12 18:00:00 17.6 7 Oeste 19 Oeste 0 1017.8 -1.2 86
2020-03-12 17:00:00 18.4 10 Oeste 19 Sudoeste 0 1018 -2 83
2020-03-12 16:00:00 19.5 13 Sudoeste 20 Oeste 0 1018.7 -1.9 76
2020-03-12 15:00:00 18.8 12 Sudoeste 20 Sudoeste 0 1019 -1.9 77
2020-03-12 14:00:00 18 8 Sur 17 Sudoeste 0 1020 -0.9 81
2020-03-12 13:00:00 17.9 9 Sudoeste 19 Sudoeste 0 1020.6 0.2 81
2020-03-12 12:00:00 18.1 9 Sudoeste 17 Sur 0 1020.9 0.9 80
2020-03-12 11:00:00 16.8 7 Sudoeste 18 Sudoeste 0 1020.9 1.7 84
2020-03-12 10:00:00 16.5 9 Sur 18 Sur 0 1020.4 1.6 87
2020-03-12 09:00:00 15.4 8 Sur 18 Sur 0 1020 1.3 93
2020-03-12 08:00:00 14.9 10 Sur 19 Sur 0 1019.2 0.7 95
2020-03-12 07:00:00 15 10 Sur 33 Sur 0 1018.8 -0.2 96
2020-03-12 06:00:00 14.6 13 Sudoeste 23 Sudoeste 0 1018.7 -0.5 97
2020-03-12 05:00:00 14.6 13 Sudoeste 21 Sudoeste 0 1018.5 -0.9 96
2020-03-12 04:00:00 14.8 10 Sudoeste 23 Sudoeste 0 1019 -0.5 94
2020-03-12 03:00:00 16.9 13 Sur 19 Sur 0 1019.2 -0.5 73
2020-03-12 02:00:00 17.4 8 Sudeste 15 Sudeste 0 1019.4 -0.2 71
2020-03-12 01:00:00 17.6 11 Sudeste 14 Sudeste 0 1019.5 0.3 64
2020-03-12 00:00:00 18.2 5 Sur 14 Este 0 1019.7 1 64
2020-03-11 23:00:00 19.2 7 Este 14 Sudeste 0 1019.6 1 48
2020-03-11 22:00:00 19.3 12 Sudeste 23 Sudeste 0 1019.2 0.8 56
2020-03-11 21:00:00 19.2 17 Este 31 Este 0 1018.7 0.1 55
2020-03-11 20:00:00 20.7 24 Este 36 Este 0 1018.6 -0.5 50
2020-03-11 19:00:00 22 27 Este 39 Sudeste 0 1018.4 -0.7 46
2020-03-11 18:00:00 22.8 22 Este 34 Sudeste 0 1018.6 -1.3 46
2020-03-11 17:00:00 23.2 28 Sudeste 37 Este 0 1019.1 -1.4 42
2020-03-11 16:00:00 23.7 29 Sudeste 38 Sudeste 0 1019.1 -1.7 41
2020-03-11 15:00:00 23.9 23 Sudeste 37 Sudeste 0 1019.9 -- 41
2020-03-11 14:00:00 22.9 15 Este 37 Este 0 1020.5 -1.2 51
2020-03-11 13:00:00 22.1 31 Este 50 Este 0 1020.8 -1 46
2020-03-11 12:00:00 -- 26 Este 40 Este 0 -- -- --
2020-03-11 11:00:00 19.9 10 Este 33 Este 0 1021.7 -0.4 53
2020-03-11 10:00:00 18.9 12 Este 39 Este 0 1021.8 0 49
2020-03-11 09:00:00 17.2 30 Este 38 Este 0 1021.8 0 53
2020-03-11 08:00:00 15.9 14 Este 21 Este 0 1022.1 0.2 58
2020-03-11 07:00:00 16.1 18 Este 30 Este 0 1021.8 -0.7 56
2020-03-11 06:00:00 15.6 10 Este 16 Nordeste 0 1021.8 -1.1 54
2020-03-11 05:00:00 16.2 9 Nordeste 25 Este 0 1021.9 -1 49
2020-03-11 04:00:00 17 12 Este 28 Este 0 1022.5 -0.9 50
2020-03-11 03:00:00 17.1 14 Este 30 Sudeste 0 1022.9 -0.9 57
2020-03-11 02:00:00 17.6 22 Sudeste 41 Este 0 1022.9 -1.3 50
2020-03-11 01:00:00 16.9 22 Sudeste 34 Sudeste 0 1023.4 -0.4 54
2020-03-11 00:00:00 16.8 23 Sudeste 33 Sudeste 0 1023.8 0.2 58
2020-03-10 23:00:00 17.4 19 Sudeste 41 Sudeste 0 1024.2 0.5 55
2020-03-10 22:00:00 18.1 19 Sudeste 30 Este 0 1023.8 0.1 53
2020-03-10 21:00:00 18.4 27 Sudeste 39 Este 0 1023.6 -0.2 50
2020-03-10 20:00:00 19.2 27 Sudeste 39 Este 0 1023.7 0 50
2020-03-10 19:00:00 20.4 31 Sudeste 41 Sudeste 0 1023.7 -0.3 49
2020-03-10 18:00:00 21.8 27 Sudeste 35 Sudeste 0 1023.8 -0.3 50
2020-03-10 17:00:00 23.3 14 Sudeste 21 Este 0 1023.7 -1.2 47
2020-03-10 16:00:00 23.6 2 Sur 19 Sur 0 1024 -1.5 49
2020-03-10 15:00:00 22.6 0 Calma 12 Oeste 0 1024.1 -1.7 59
2020-03-10 14:00:00 20.9 6 Sudoeste 15 Sudoeste 0 1024.9 -0.8 63
2020-03-10 13:00:00 20.2 6 Sudoeste 13 Sudoeste 0 1025.5 0.2 65
2020-03-10 12:00:00 19.9 3 Sur 9 Este 0 1025.8 1.1 47
2020-03-10 11:00:00 18.3 5 Este 13 Nordeste 0 1025.7 2.1 50
2020-03-10 10:00:00 15 5 Nordeste 14 Este 0 1025.3 1.7 60
2020-03-10 09:00:00 14 5 Este 20 Norte 0 1024.7 1.7 62
2020-03-10 08:00:00 14 13 Norte 34 Norte 0 1023.6 1 65
2020-03-10 07:00:00 13.9 9 Nordeste 16 Norte 0 1023.6 0.2 65
2020-03-10 06:00:00 14.6 5 Nordeste 23 Norte 0 1023 -1 63
2020-03-10 05:00:00 16.5 21 Norte 26 Norte 0 1022.6 -2 62
2020-03-10 04:00:00 15.4 12 Noroeste 18 Norte 0 1023.4 -1.6 63
2020-03-10 03:00:00 16.6 16 Norte 24 Norte 0 1024 -1.2 58
2020-03-10 02:00:00 15.4 13 Norte 17 Norte 0 1024.6 -0.3 68
2020-03-10 01:00:00 15.5 12 Norte 15 Norte 0 1025 0.3 68
2020-03-10 00:00:00 16.8 12 Norte 24 Noroeste 0 1025.2 0.9 68